createdAt,value
2022-10-11T00:00:06.743Z,6.40
2022-10-11T00:00:50.266Z,6.60
2022-10-11T00:01:37.543Z,6.60
2022-10-11T00:02:10.922Z,6.30
2022-10-11T00:02:44.186Z,5.90
2022-10-11T00:03:17.477Z,5.80
2022-10-11T00:03:50.547Z,6.10
2022-10-11T00:04:23.893Z,6.00
2022-10-11T00:04:57.310Z,6.60
2022-10-11T00:05:30.902Z,6.30
2022-10-11T00:06:06.462Z,5.80
2022-10-11T00:06:40.159Z,6.00
2022-10-11T00:07:13.461Z,6.70
2022-10-11T00:07:46.665Z,5.80
2022-10-11T00:08:20.315Z,6.40
2022-10-11T00:08:53.752Z,6.20
2022-10-11T00:09:26.832Z,5.60
2022-10-11T00:09:59.861Z,6.50
2022-10-11T00:10:35.710Z,6.60
2022-10-11T00:11:10.533Z,6.10
2022-10-11T00:11:43.765Z,6.50
2022-10-11T00:12:16.977Z,5.10
2022-10-11T00:12:52.505Z,5.80
2022-10-11T00:13:26.804Z,5.30
2022-10-11T00:14:00.003Z,5.90
2022-10-11T00:14:34.314Z,6.10
2022-10-11T00:15:09.869Z,6.20
2022-10-11T00:15:43.186Z,5.80
2022-10-11T00:16:16.334Z,6.00
2022-10-11T00:16:49.365Z,6.00
2022-10-11T00:17:22.889Z,5.80
2022-10-11T00:17:56.680Z,6.10
2022-10-11T00:18:30.083Z,5.40
2022-10-11T00:19:03.764Z,5.80
2022-10-11T00:19:37.028Z,6.30
2022-10-11T00:20:11.009Z,5.50
2022-10-11T00:20:44.348Z,5.50
2022-10-11T00:21:17.862Z,6.10
2022-10-11T00:21:51.119Z,6.10
2022-10-11T00:22:24.306Z,6.80
2022-10-11T00:22:57.603Z,6.40
2022-10-11T00:23:30.956Z,6.60
2022-10-11T00:24:04.917Z,6.40
2022-10-11T00:24:37.999Z,5.70
2022-10-11T00:25:12.789Z,5.70
2022-10-11T00:25:45.910Z,6.10
2022-10-11T00:26:19.223Z,6.40
2022-10-11T00:26:52.588Z,6.60
2022-10-11T00:27:25.980Z,6.10
2022-10-11T00:27:59.219Z,5.90
2022-10-11T00:28:33.200Z,5.80
2022-10-11T00:29:06.355Z,6.10
2022-10-11T00:29:39.556Z,6.70
2022-10-11T00:30:13.549Z,5.50
2022-10-11T00:30:46.788Z,5.80
2022-10-11T00:31:20.010Z,6.40
2022-10-11T00:31:53.150Z,6.60
2022-10-11T00:32:26.640Z,6.70
2022-10-11T00:32:59.848Z,6.20
2022-10-11T00:33:33.369Z,6.70
2022-10-11T00:34:06.889Z,6.10
2022-10-11T00:34:39.967Z,6.00
2022-10-11T00:35:13.646Z,5.60
2022-10-11T00:35:46.995Z,6.00
2022-10-11T00:36:20.263Z,6.60
2022-10-11T00:36:53.463Z,6.50
2022-10-11T00:37:26.712Z,6.30
2022-10-11T00:37:59.801Z,5.80
2022-10-11T00:38:33.182Z,6.60
2022-10-11T00:39:06.326Z,6.20
2022-10-11T00:39:39.429Z,6.10
2022-10-11T00:40:18.970Z,6.30
2022-10-11T00:40:52.377Z,6.40
2022-10-11T00:41:25.470Z,6.40
2022-10-11T00:41:58.837Z,6.80
2022-10-11T00:42:31.804Z,7.60
2022-10-11T00:43:05.337Z,5.90
2022-10-11T00:43:39.165Z,6.30
2022-10-11T00:44:25.358Z,6.60
2022-10-11T00:45:26.521Z,5.90
2022-10-11T00:46:08.198Z,6.20
2022-10-11T00:46:45.935Z,5.80
2022-10-11T00:47:22.428Z,6.20
2022-10-11T00:47:57.852Z,6.50
2022-10-11T00:48:45.116Z,6.40
2022-10-11T00:49:24.845Z,6.00
2022-10-11T00:50:01.465Z,6.20
2022-10-11T00:50:36.129Z,5.70
2022-10-11T00:51:20.647Z,5.60
2022-10-11T00:51:59.292Z,5.80
2022-10-11T00:52:40.913Z,6.60
2022-10-11T00:53:14.117Z,6.70
2022-10-11T00:53:50.143Z,6.30
2022-10-11T00:54:27.597Z,6.30
2022-10-11T00:55:07.668Z,7.10
2022-10-11T00:55:52.244Z,6.30
2022-10-11T00:56:31.555Z,6.30
2022-10-11T00:57:08.551Z,6.50
2022-10-11T00:57:44.643Z,6.50
2022-10-11T00:58:19.411Z,6.00
2022-10-11T00:58:54.640Z,6.90
2022-10-11T00:59:31.787Z,6.80
2022-10-11T01:00:08.163Z,6.40
2022-10-11T01:00:41.410Z,5.70
2022-10-11T01:01:14.822Z,5.90
2022-10-11T01:01:48.166Z,6.30
2022-10-11T01:02:23.522Z,6.00
2022-10-11T01:02:57.482Z,6.90
2022-10-11T01:03:33.190Z,6.00
2022-10-11T01:04:06.719Z,6.10
2022-10-11T01:04:40.141Z,5.90
2022-10-11T01:05:30.731Z,6.10
2022-10-11T01:06:04.669Z,5.70
2022-10-11T01:06:38.116Z,5.80
2022-10-11T01:07:11.969Z,6.20
2022-10-11T01:07:48.117Z,6.20
2022-10-11T01:08:21.323Z,6.10
2022-10-11T01:08:55.082Z,7.00
2022-10-11T01:09:28.715Z,6.10
2022-10-11T01:10:01.752Z,6.30
2022-10-11T01:10:35.364Z,6.80
2022-10-11T01:11:14.859Z,6.70
2022-10-11T01:11:50.757Z,5.90
2022-10-11T01:12:26.881Z,6.10
2022-10-11T01:13:00.014Z,5.70
2022-10-11T01:13:40.741Z,6.10
2022-10-11T01:15:31.384Z,6.70
2022-10-11T01:16:04.668Z,6.80
2022-10-11T01:17:16.254Z,6.10
2022-10-11T01:18:08.714Z,6.70
2022-10-11T01:18:53.472Z,6.60
2022-10-11T01:19:38.416Z,6.60
2022-10-11T01:20:26.714Z,6.40
2022-10-11T01:21:13.606Z,6.20
2022-10-11T01:21:46.639Z,6.00
2022-10-11T01:22:25.465Z,5.60
2022-10-11T01:23:21.500Z,6.70
2022-10-11T01:24:23.355Z,5.80
2022-10-11T01:25:27.919Z,5.60
2022-10-11T01:26:22.425Z,5.70
2022-10-11T01:27:25.547Z,6.10
2022-10-11T01:28:19.604Z,6.40
2022-10-11T01:28:59.686Z,6.50
2022-10-11T01:30:07.831Z,6.20
2022-10-11T01:30:42.454Z,5.90
2022-10-11T01:31:49.829Z,6.40
2022-10-11T01:32:35.399Z,6.80
2022-10-11T01:33:35.384Z,6.70
2022-10-11T01:34:35.977Z,6.10
2022-10-11T01:35:19.111Z,6.20
2022-10-11T01:36:28.198Z,5.70
2022-10-11T01:37:23.102Z,5.90
2022-10-11T01:38:03.057Z,5.50
2022-10-11T01:38:46.081Z,6.70
2022-10-11T01:39:31.754Z,6.30
2022-10-11T01:40:11.697Z,6.50
2022-10-11T01:40:54.668Z,6.30
2022-10-11T01:41:31.446Z,6.30
2022-10-11T01:42:10.095Z,6.60
2022-10-11T01:42:44.416Z,6.20
2022-10-11T01:43:20.261Z,7.40
2022-10-11T01:43:59.008Z,7.30
2022-10-11T01:44:34.589Z,6.80
2022-10-11T01:45:15.821Z,7.10
2022-10-11T01:45:53.127Z,7.20
2022-10-11T01:46:27.551Z,6.90
2022-10-11T01:47:00.677Z,6.20
2022-10-11T01:47:33.873Z,6.40
2022-10-11T01:48:09.611Z,6.10
2022-10-11T01:48:57.056Z,5.80
2022-10-11T01:49:30.169Z,5.70
2022-10-11T01:50:03.757Z,6.30
2022-10-11T01:50:44.160Z,6.20
2022-10-11T01:51:21.597Z,6.50
2022-10-11T01:51:59.902Z,6.90
2022-10-11T01:52:36.362Z,6.10
2022-10-11T01:53:31.443Z,6.70
2022-10-11T01:55:07.541Z,7.00
2022-10-11T01:55:50.643Z,6.40
2022-10-11T01:56:34.161Z,7.20
2022-10-11T01:57:31.846Z,6.80
2022-10-11T01:58:15.951Z,7.60
2022-10-11T01:59:34.347Z,5.90
2022-10-11T02:00:14.630Z,6.30
2022-10-11T02:00:56.722Z,6.40
2022-10-11T02:01:32.693Z,6.10
2022-10-11T02:02:24.414Z,6.80
2022-10-11T02:03:19.156Z,7.00
2022-10-11T02:04:07.356Z,6.60
2022-10-11T02:04:58.646Z,5.80
2022-10-11T02:06:56.518Z,6.60
2022-10-11T02:08:01.668Z,5.70
2022-10-11T02:08:39.017Z,6.60
2022-10-11T02:09:17.534Z,7.40
2022-10-11T02:10:10.947Z,7.30
2022-10-11T02:11:09.890Z,6.80
2022-10-11T02:11:44.685Z,6.30
2022-10-11T02:12:25.951Z,6.50
2022-10-11T02:13:09.898Z,5.90
2022-10-11T02:13:48.942Z,6.90
2022-10-11T02:14:31.510Z,6.10
2022-10-11T02:15:09.560Z,6.50
2022-10-11T02:15:44.875Z,6.10
2022-10-11T02:16:24.622Z,5.20
2022-10-11T02:17:04.447Z,6.30
2022-10-11T02:17:45.245Z,6.50
2022-10-11T02:18:57.137Z,6.00
2022-10-11T02:19:37.166Z,6.20
2022-10-11T02:20:15.537Z,6.60
2022-10-11T02:20:50.657Z,6.00
2022-10-11T02:21:25.000Z,6.50
2022-10-11T02:22:03.960Z,6.00
2022-10-11T02:22:41.267Z,6.80
2022-10-11T02:23:20.673Z,5.80
2022-10-11T02:24:06.926Z,6.40
2022-10-11T02:24:44.936Z,6.00
2022-10-11T02:25:24.963Z,6.30
2022-10-11T02:25:58.222Z,5.60
2022-10-11T02:26:34.869Z,6.20
2022-10-11T02:27:10.725Z,5.60
2022-10-11T02:27:47.496Z,5.50
2022-10-11T02:28:29.242Z,6.00
2022-10-11T02:29:06.018Z,5.80
2022-10-11T02:29:44.346Z,5.70
2022-10-11T02:30:18.104Z,5.90
2022-10-11T02:30:53.840Z,6.00
2022-10-11T02:31:30.708Z,5.70
2022-10-11T02:32:04.537Z,5.80
2022-10-11T02:32:41.938Z,5.70
2022-10-11T02:33:21.750Z,5.50
2022-10-11T02:34:05.471Z,6.00
2022-10-11T02:34:45.286Z,6.30
2022-10-11T02:35:19.787Z,7.10
2022-10-11T02:36:03.314Z,6.00
2022-10-11T02:36:49.104Z,5.80
2022-10-11T02:37:36.829Z,6.00
2022-10-11T02:38:18.000Z,5.50
2022-10-11T02:38:59.310Z,6.20
2022-10-11T02:39:36.744Z,5.40
2022-10-11T02:40:31.426Z,5.50
2022-10-11T02:41:25.751Z,5.40
2022-10-11T02:42:05.432Z,5.10
2022-10-11T02:42:51.787Z,6.30
2022-10-11T02:43:38.562Z,5.80
2022-10-11T02:44:19.140Z,5.70
2022-10-11T02:45:01.044Z,5.10
2022-10-11T02:45:39.737Z,6.20
2022-10-11T02:46:15.225Z,5.90
2022-10-11T02:46:51.781Z,6.20
2022-10-11T02:47:25.095Z,5.70
2022-10-11T02:47:59.115Z,5.50
2022-10-11T02:48:33.914Z,6.20
2022-10-11T02:49:08.874Z,6.00
2022-10-11T02:49:42.169Z,6.00
2022-10-11T02:50:16.258Z,5.30
2022-10-11T02:50:49.502Z,5.70
2022-10-11T02:51:22.730Z,6.10
2022-10-11T02:51:57.464Z,5.90
2022-10-11T02:52:30.577Z,5.30
2022-10-11T02:53:04.903Z,6.20
2022-10-11T02:53:37.988Z,5.20
2022-10-11T02:54:11.300Z,5.50
2022-10-11T02:54:44.374Z,5.10
2022-10-11T02:55:17.635Z,5.00
2022-10-11T02:55:52.747Z,5.40
2022-10-11T02:56:25.914Z,5.30
2022-10-11T02:56:58.928Z,5.60
2022-10-11T02:57:32.122Z,5.50
2022-10-11T02:58:05.141Z,5.70
2022-10-11T02:58:38.280Z,5.30
2022-10-11T02:59:11.835Z,5.90
2022-10-11T02:59:45.033Z,5.70
2022-10-11T03:00:18.109Z,6.20
2022-10-11T03:00:51.120Z,5.90
2022-10-11T03:01:24.478Z,6.30
2022-10-11T03:01:57.731Z,5.60
2022-10-11T03:02:30.988Z,5.80
2022-10-11T03:03:04.291Z,6.00
2022-10-11T03:03:37.375Z,6.00
2022-10-11T03:04:10.478Z,6.90
2022-10-11T03:04:43.505Z,6.30
2022-10-11T03:05:16.649Z,5.80
2022-10-11T03:05:49.717Z,6.30
2022-10-11T03:06:22.960Z,5.90
2022-10-11T03:06:55.967Z,5.70
2022-10-11T03:07:29.146Z,6.70
2022-10-11T03:08:02.299Z,6.30
2022-10-11T03:08:35.653Z,5.90
2022-10-11T03:09:08.872Z,6.30
2022-10-11T03:09:42.111Z,5.60
2022-10-11T03:10:15.247Z,5.70
2022-10-11T03:10:48.547Z,5.90
2022-10-11T03:11:21.703Z,5.40
2022-10-11T03:11:54.933Z,5.60
2022-10-11T03:12:28.064Z,5.80
2022-10-11T03:13:01.235Z,5.70
2022-10-11T03:13:34.496Z,6.10
2022-10-11T03:14:07.661Z,6.50
2022-10-11T03:14:41.027Z,6.00
2022-10-11T03:15:14.263Z,6.50
2022-10-11T03:16:02.223Z,5.90
2022-10-11T03:16:40.282Z,6.50
2022-10-11T03:17:34.947Z,5.80
2022-10-11T03:18:06.746Z,6.60
2022-10-11T03:18:39.984Z,6.70
2022-10-11T03:19:18.337Z,6.10
2022-10-11T03:19:52.300Z,6.10
2022-10-11T03:20:26.395Z,5.80
2022-10-11T03:20:59.716Z,5.90
2022-10-11T03:21:32.967Z,5.60
2022-10-11T03:22:06.092Z,6.00
2022-10-11T03:22:39.264Z,5.60
2022-10-11T03:23:13.742Z,5.70
2022-10-11T03:23:46.856Z,5.70
2022-10-11T03:24:19.903Z,6.00
2022-10-11T03:24:53.643Z,5.50
2022-10-11T03:25:26.915Z,5.20
2022-10-11T03:26:00.242Z,5.40
2022-10-11T03:26:33.349Z,6.30
2022-10-11T03:27:06.554Z,6.60
2022-10-11T03:27:40.226Z,6.60
2022-10-11T03:28:13.472Z,5.60
2022-10-11T03:28:46.650Z,6.10
2022-10-11T03:29:19.840Z,6.30
2022-10-11T03:29:52.943Z,6.10
2022-10-11T03:30:26.515Z,5.90
2022-10-11T03:30:59.836Z,5.70
2022-10-11T03:31:33.081Z,5.40
2022-10-11T03:32:06.264Z,5.80
2022-10-11T03:32:39.545Z,5.40
2022-10-11T03:33:12.920Z,6.20
2022-10-11T03:33:46.266Z,6.80
2022-10-11T03:34:19.326Z,5.90
2022-10-11T03:34:52.569Z,5.40
2022-10-11T03:35:25.650Z,5.70
2022-10-11T03:35:58.864Z,5.60
2022-10-11T03:36:32.173Z,5.60
2022-10-11T03:37:05.462Z,5.70
2022-10-11T03:37:38.873Z,5.30
2022-10-11T03:38:14.578Z,5.50
2022-10-11T03:38:47.744Z,5.50
2022-10-11T03:39:21.324Z,6.20
2022-10-11T03:39:54.416Z,6.10
2022-10-11T03:40:27.504Z,5.90
2022-10-11T03:41:00.650Z,6.30
2022-10-11T03:41:33.726Z,5.70
2022-10-11T03:42:06.926Z,6.50
2022-10-11T03:42:40.599Z,5.80
2022-10-11T03:43:14.030Z,5.90
2022-10-11T03:43:47.237Z,6.20
2022-10-11T03:44:20.291Z,5.90
2022-10-11T03:44:53.423Z,5.10
2022-10-11T03:45:26.529Z,6.00
2022-10-11T03:45:59.545Z,5.70
2022-10-11T03:46:32.884Z,5.60
2022-10-11T03:47:06.344Z,5.00
2022-10-11T03:47:39.741Z,5.10
2022-10-11T03:48:12.859Z,5.30
2022-10-11T03:48:45.915Z,6.20
2022-10-11T03:49:19.113Z,5.10
2022-10-11T03:49:52.318Z,5.90
2022-10-11T03:50:25.543Z,5.20
2022-10-11T03:50:58.717Z,6.40
2022-10-11T03:51:32.040Z,5.80
2022-10-11T03:52:05.193Z,6.00
2022-10-11T03:52:38.337Z,5.80
2022-10-11T03:53:11.750Z,6.10
2022-10-11T03:53:45.334Z,5.50
2022-10-11T03:54:18.373Z,5.80
2022-10-11T03:54:51.506Z,6.30
2022-10-11T03:55:24.617Z,6.20
2022-10-11T03:55:57.827Z,6.30
2022-10-11T03:56:31.050Z,6.10
2022-10-11T03:57:04.311Z,6.00
2022-10-11T03:57:37.500Z,6.60
2022-10-11T03:58:10.563Z,6.00
2022-10-11T03:58:43.677Z,5.20
2022-10-11T03:59:16.865Z,5.70
2022-10-11T03:59:50.289Z,6.30
2022-10-11T04:00:23.562Z,5.70
2022-10-11T04:00:56.764Z,6.00
2022-10-11T04:01:30.867Z,5.80
2022-10-11T04:02:04.668Z,5.50
2022-10-11T04:02:39.297Z,5.70
2022-10-11T04:03:13.237Z,5.90
2022-10-11T04:03:46.376Z,6.10
2022-10-11T04:04:19.394Z,5.70
2022-10-11T04:04:52.642Z,5.90
2022-10-11T04:05:26.004Z,6.10
2022-10-11T04:05:59.236Z,5.50
2022-10-11T04:06:33.020Z,5.40
2022-10-11T04:07:06.275Z,6.20
2022-10-11T04:07:40.395Z,5.80
2022-10-11T04:08:13.487Z,6.40
2022-10-11T04:08:46.575Z,6.50
2022-10-11T04:09:19.653Z,6.40
2022-10-11T04:09:53.046Z,6.10
2022-10-11T04:10:26.260Z,5.80
2022-10-11T04:10:59.480Z,5.30
2022-10-11T04:11:33.095Z,5.70
2022-10-11T04:12:06.381Z,5.40
2022-10-11T04:12:39.774Z,5.80
2022-10-11T04:13:13.221Z,6.20
2022-10-11T04:13:46.556Z,6.40
2022-10-11T04:14:19.697Z,5.60
2022-10-11T04:14:52.797Z,6.20
2022-10-11T04:15:25.924Z,6.00
2022-10-11T04:15:59.068Z,5.60
2022-10-11T04:16:32.813Z,5.30
2022-10-11T04:17:06.086Z,5.50
2022-10-11T04:17:39.956Z,6.60
2022-10-11T04:18:13.308Z,6.10
2022-10-11T04:18:46.433Z,5.80
2022-10-11T04:19:19.752Z,6.80
2022-10-11T04:19:52.919Z,5.80
2022-10-11T04:20:26.000Z,5.70
2022-10-11T04:20:58.977Z,6.20
2022-10-11T04:21:32.367Z,6.10
2022-10-11T04:22:06.320Z,6.10
2022-10-11T04:22:39.643Z,5.70
2022-10-11T04:23:13.062Z,6.70
2022-10-11T04:23:46.079Z,5.90
2022-10-11T04:24:19.275Z,5.20
2022-10-11T04:24:52.402Z,5.50
2022-10-11T04:25:25.748Z,6.10
2022-10-11T04:25:59.756Z,5.50
2022-10-11T04:26:32.950Z,6.10
2022-10-11T04:27:06.625Z,5.30
2022-10-11T04:27:39.958Z,6.10
2022-10-11T04:28:13.302Z,5.70
2022-10-11T04:28:46.778Z,6.20
2022-10-11T04:29:20.051Z,5.70
2022-10-11T04:29:53.817Z,6.10
2022-10-11T04:30:27.645Z,6.00
2022-10-11T04:31:01.292Z,6.20
2022-10-11T04:31:34.790Z,6.60
2022-10-11T04:32:07.827Z,6.10
2022-10-11T04:32:40.880Z,6.10
2022-10-11T04:33:14.163Z,5.90
2022-10-11T04:33:47.934Z,6.00
2022-10-11T04:34:21.036Z,6.00
2022-10-11T04:34:54.141Z,6.00
2022-10-11T04:35:27.242Z,5.90
2022-10-11T04:36:00.388Z,5.60
2022-10-11T04:36:34.258Z,5.80
2022-10-11T04:37:07.352Z,5.80
2022-10-11T04:37:40.544Z,5.70
2022-10-11T04:38:13.602Z,6.30
2022-10-11T04:38:46.715Z,5.10
2022-10-11T04:39:19.876Z,5.60
2022-10-11T04:39:53.021Z,5.70
2022-10-11T04:40:26.132Z,5.70
2022-10-11T04:41:10.521Z,5.30
2022-10-11T04:41:43.634Z,5.70
2022-10-11T04:42:16.857Z,5.90
2022-10-11T04:42:50.820Z,5.60
2022-10-11T04:43:23.991Z,5.60
2022-10-11T04:43:57.415Z,6.20
2022-10-11T04:44:31.515Z,6.10
2022-10-11T04:45:05.195Z,6.20
2022-10-11T04:45:38.358Z,5.70
2022-10-11T04:46:11.960Z,5.70
2022-10-11T04:46:45.261Z,5.70
2022-10-11T04:47:18.588Z,5.90
2022-10-11T04:47:51.662Z,5.90
2022-10-11T04:48:24.806Z,6.20
2022-10-11T04:48:57.981Z,6.00
2022-10-11T04:49:31.110Z,6.40
2022-10-11T04:50:04.937Z,5.30
2022-10-11T04:50:38.316Z,5.80
2022-10-11T04:51:11.571Z,5.90
2022-10-11T04:51:44.913Z,5.50
2022-10-11T04:52:21.074Z,5.90
2022-10-11T04:52:56.560Z,5.60
2022-10-11T04:53:30.182Z,6.20
2022-10-11T04:54:03.284Z,6.00
2022-10-11T04:54:36.973Z,6.10
2022-10-11T04:55:11.174Z,6.70
2022-10-11T04:55:44.162Z,6.20
2022-10-11T04:56:18.858Z,7.30
2022-10-11T04:56:51.919Z,7.60
2022-10-11T04:57:25.025Z,7.10
2022-10-11T04:57:58.321Z,7.00
2022-10-11T04:58:32.714Z,6.80
2022-10-11T04:59:05.867Z,6.30
2022-10-11T04:59:38.989Z,6.60
2022-10-11T05:00:12.682Z,7.10
2022-10-11T05:00:45.892Z,6.30
2022-10-11T05:01:19.080Z,6.70
2022-10-11T05:01:52.329Z,6.10
2022-10-11T05:02:25.780Z,6.70
2022-10-11T05:02:59.188Z,6.90
2022-10-11T05:03:32.986Z,6.60
2022-10-11T05:04:06.221Z,5.90
2022-10-11T05:04:39.306Z,5.90
2022-10-11T05:05:17.495Z,6.30
2022-10-11T05:05:51.131Z,6.90
2022-10-11T05:06:24.202Z,7.00
2022-10-11T05:06:57.321Z,6.90
2022-10-11T05:07:30.518Z,7.60
2022-10-11T05:08:03.597Z,6.60
2022-10-11T05:08:36.830Z,7.40
2022-10-11T05:09:10.082Z,6.20
2022-10-11T05:09:43.437Z,6.30
2022-10-11T05:10:16.716Z,7.10
2022-10-11T05:11:01.291Z,7.20
2022-10-11T05:11:34.563Z,6.60
2022-10-11T05:12:07.808Z,6.50
2022-10-11T05:12:40.946Z,7.00
2022-10-11T05:13:14.045Z,8.40
2022-10-11T05:13:47.682Z,6.90
2022-10-11T05:14:20.929Z,7.10
2022-10-11T05:14:54.217Z,6.70
2022-10-11T05:15:27.450Z,6.40
2022-10-11T05:16:01.044Z,6.40
2022-10-11T05:16:34.320Z,6.70
2022-10-11T05:17:07.524Z,7.40
2022-10-11T05:17:40.767Z,6.60
2022-10-11T05:18:13.977Z,6.90
2022-10-11T05:18:47.182Z,6.60
2022-10-11T05:19:20.412Z,6.70
2022-10-11T05:19:53.509Z,7.00
2022-10-11T05:20:26.938Z,7.40
2022-10-11T05:21:19.632Z,7.90
2022-10-11T05:21:52.756Z,7.20
2022-10-11T05:22:25.966Z,7.20
2022-10-11T05:22:59.037Z,7.20
2022-10-11T05:23:34.117Z,6.70
2022-10-11T05:24:07.724Z,7.00
2022-10-11T05:24:40.770Z,6.60
2022-10-11T05:25:13.896Z,6.40
2022-10-11T05:25:47.247Z,6.30
2022-10-11T05:26:21.208Z,6.10
2022-10-11T05:26:54.339Z,6.30
2022-10-11T05:27:27.482Z,6.60
2022-10-11T05:28:01.639Z,7.30
2022-10-11T05:28:34.933Z,6.60
2022-10-11T05:29:08.110Z,7.20
2022-10-11T05:29:41.265Z,7.00
2022-10-11T05:30:14.423Z,6.90
2022-10-11T05:30:47.538Z,6.60
2022-10-11T05:31:21.352Z,6.60
2022-10-11T05:31:54.627Z,6.70
2022-10-11T05:32:28.218Z,7.20
2022-10-11T05:33:01.405Z,7.00
2022-10-11T05:33:34.887Z,7.20
2022-10-11T05:34:08.191Z,6.90
2022-10-11T05:34:41.395Z,6.90
2022-10-11T05:35:14.873Z,6.40
2022-10-11T05:35:48.045Z,6.20
2022-10-11T05:36:21.592Z,6.20
2022-10-11T05:36:56.614Z,6.10
2022-10-11T05:37:29.691Z,6.50
2022-10-11T05:38:02.840Z,6.60
2022-10-11T05:38:37.008Z,6.00
2022-10-11T05:39:10.168Z,6.70
2022-10-11T05:39:43.622Z,6.20
2022-10-11T05:40:17.008Z,6.60
2022-10-11T05:40:50.311Z,7.20
2022-10-11T05:41:23.430Z,6.90
2022-10-11T05:41:56.588Z,7.30
2022-10-11T05:42:29.639Z,7.10
2022-10-11T05:43:02.878Z,7.60
2022-10-11T05:43:36.192Z,8.00
2022-10-11T05:44:09.435Z,7.60
2022-10-11T05:44:42.759Z,7.30
2022-10-11T05:45:15.958Z,7.10
2022-10-11T05:45:49.976Z,7.60
2022-10-11T05:46:23.303Z,6.80
2022-10-11T05:46:56.511Z,7.90
2022-10-11T05:47:29.604Z,8.20
2022-10-11T05:48:02.760Z,7.30
2022-10-11T05:48:35.959Z,6.80
2022-10-11T05:49:09.016Z,7.10
2022-10-11T05:49:42.723Z,7.30
2022-10-11T05:50:17.195Z,6.70
2022-10-11T05:50:51.900Z,7.40
2022-10-11T05:51:24.912Z,7.20
2022-10-11T05:51:58.367Z,7.00
2022-10-11T05:52:32.110Z,7.30
2022-10-11T05:53:06.062Z,8.00
2022-10-11T05:53:39.722Z,7.10
2022-10-11T05:54:12.847Z,7.30
2022-10-11T05:54:46.112Z,8.10
2022-10-11T05:55:19.588Z,8.00
2022-10-11T05:55:52.916Z,7.40
2022-10-11T05:56:26.843Z,7.80
2022-10-11T05:57:00.183Z,7.40
2022-10-11T05:57:33.550Z,8.40
2022-10-11T05:58:08.026Z,7.70
2022-10-11T05:58:41.206Z,7.10
2022-10-11T05:59:14.796Z,7.30
2022-10-11T05:59:47.868Z,7.10
2022-10-11T06:00:21.246Z,7.00
2022-10-11T06:00:55.106Z,7.60
2022-10-11T06:01:28.844Z,7.20
2022-10-11T06:02:02.140Z,7.30
2022-10-11T06:02:35.258Z,6.80
2022-10-11T06:03:11.284Z,7.40
2022-10-11T06:03:44.700Z,7.20
2022-10-11T06:04:19.218Z,7.30
2022-10-11T06:04:52.376Z,7.60
2022-10-11T06:05:25.840Z,7.70
2022-10-11T06:06:02.852Z,7.70
2022-10-11T06:06:36.155Z,8.10
2022-10-11T06:07:09.351Z,8.60
2022-10-11T06:07:43.448Z,8.40
2022-10-11T06:08:16.933Z,7.70
2022-10-11T06:08:50.281Z,7.90
2022-10-11T06:09:23.464Z,7.40
2022-10-11T06:09:56.741Z,8.40
2022-10-11T06:10:29.973Z,7.70
2022-10-11T06:11:17.272Z,7.20
2022-10-11T06:11:51.043Z,7.90
2022-10-11T06:12:24.291Z,8.70
2022-10-11T06:12:57.706Z,7.70
2022-10-11T06:13:30.782Z,7.60
2022-10-11T06:14:03.963Z,9.80
2022-10-11T06:14:37.338Z,10.90
2022-10-11T06:15:11.665Z,10.30
2022-10-11T06:15:44.940Z,8.00
2022-10-11T06:16:18.093Z,8.40
2022-10-11T06:16:51.230Z,8.30
2022-10-11T06:17:24.549Z,7.30
2022-10-11T06:17:59.562Z,8.20
2022-10-11T06:18:33.207Z,7.40
2022-10-11T06:19:06.344Z,7.50
2022-10-11T06:19:39.462Z,8.20
2022-10-11T06:20:13.010Z,7.70
2022-10-11T06:20:46.233Z,7.20
2022-10-11T06:21:20.010Z,6.70
2022-10-11T06:21:53.519Z,7.10
2022-10-11T06:22:26.996Z,7.20
2022-10-11T06:23:00.694Z,6.70
2022-10-11T06:23:33.902Z,6.80
2022-10-11T06:24:07.362Z,6.80
2022-10-11T06:24:40.471Z,6.90
2022-10-11T06:25:13.775Z,7.00
2022-10-11T06:25:58.159Z,7.20
2022-10-11T06:26:31.417Z,6.90
2022-10-11T06:27:04.588Z,7.80
2022-10-11T06:27:38.151Z,7.50
2022-10-11T06:28:11.499Z,8.00
2022-10-11T06:28:45.111Z,8.40
2022-10-11T06:29:18.469Z,7.90
2022-10-11T06:29:51.605Z,7.70
2022-10-11T06:30:24.850Z,7.70
2022-10-11T06:30:58.529Z,8.10
2022-10-11T06:31:32.383Z,7.40
2022-10-11T06:32:06.125Z,6.90
2022-10-11T06:32:39.404Z,7.40
2022-10-11T06:33:12.699Z,7.90
2022-10-11T06:33:45.878Z,7.80
2022-10-11T06:34:19.038Z,7.80
2022-10-11T06:34:52.206Z,7.40
2022-10-11T06:35:26.171Z,7.10
2022-10-11T06:36:01.829Z,7.40
2022-10-11T06:36:35.304Z,8.10
2022-10-11T06:37:08.503Z,7.20
2022-10-11T06:37:41.632Z,6.70
2022-10-11T06:38:14.674Z,7.20
2022-10-11T06:38:47.788Z,8.20
2022-10-11T06:39:20.947Z,8.00
2022-10-11T06:39:54.102Z,7.60
2022-10-11T06:40:27.319Z,8.00
2022-10-11T06:41:17.544Z,7.70
2022-10-11T06:41:50.938Z,8.20
2022-10-11T06:42:24.258Z,7.10
2022-10-11T06:42:57.424Z,8.10
2022-10-11T06:43:30.499Z,7.40
2022-10-11T06:44:03.708Z,7.10
2022-10-11T06:44:37.656Z,6.80
2022-10-11T06:45:11.057Z,6.50
2022-10-11T06:45:44.090Z,6.60
2022-10-11T06:46:21.961Z,6.80
2022-10-11T06:46:54.961Z,6.90
2022-10-11T06:47:28.039Z,6.40
2022-10-11T06:48:02.204Z,7.00
2022-10-11T06:48:39.213Z,7.30
2022-10-11T06:49:12.503Z,7.70
2022-10-11T06:49:45.769Z,7.10
2022-10-11T06:50:34.805Z,7.20
2022-10-11T06:51:13.970Z,7.60
2022-10-11T06:51:47.168Z,7.70
2022-10-11T06:52:20.282Z,6.80
2022-10-11T06:52:53.465Z,8.00
2022-10-11T06:53:27.374Z,6.80
2022-10-11T06:54:02.044Z,7.80
2022-10-11T06:54:35.117Z,6.70
2022-10-11T06:55:08.969Z,7.20
2022-10-11T06:55:41.926Z,6.10
2022-10-11T06:56:15.336Z,6.20
2022-10-11T06:56:48.455Z,6.70
2022-10-11T06:57:21.701Z,6.40
2022-10-11T06:57:54.929Z,6.90
2022-10-11T06:58:28.827Z,7.30
2022-10-11T06:59:02.300Z,7.30
2022-10-11T06:59:35.312Z,7.50
2022-10-11T07:00:12.476Z,6.60
2022-10-11T07:00:46.110Z,7.70
2022-10-11T07:01:21.804Z,7.70
2022-10-11T07:01:55.098Z,7.80
2022-10-11T07:02:28.200Z,7.10
2022-10-11T07:03:01.339Z,7.30
2022-10-11T07:03:35.200Z,6.50
2022-10-11T07:04:08.631Z,7.20
2022-10-11T07:04:41.828Z,7.20
2022-10-11T07:05:14.964Z,6.70
2022-10-11T07:05:48.081Z,7.30
2022-10-11T07:06:26.692Z,7.00
2022-10-11T07:06:59.882Z,6.80
2022-10-11T07:07:33.327Z,7.20
2022-10-11T07:08:06.843Z,7.70
2022-10-11T07:08:41.058Z,6.80
2022-10-11T07:09:14.223Z,7.40
2022-10-11T07:09:47.704Z,7.20
2022-10-11T07:10:20.954Z,7.70
2022-10-11T07:10:54.317Z,7.70
2022-10-11T07:11:29.198Z,7.40
2022-10-11T07:12:02.654Z,7.90
2022-10-11T07:12:35.679Z,8.10
2022-10-11T07:13:13.514Z,7.90
2022-10-11T07:13:54.835Z,7.40
2022-10-11T07:14:27.862Z,8.10
2022-10-11T07:15:01.088Z,7.30
2022-10-11T07:15:38.403Z,7.30
2022-10-11T07:16:13.160Z,8.10
2022-10-11T07:16:46.265Z,8.50
2022-10-11T07:17:19.693Z,7.60
2022-10-11T07:17:52.793Z,7.60
2022-10-11T07:18:25.792Z,7.50
2022-10-11T07:19:01.226Z,7.60
2022-10-11T07:19:34.516Z,7.90
2022-10-11T07:20:08.280Z,7.40
2022-10-11T07:20:41.436Z,8.00
2022-10-11T07:21:16.493Z,8.60
2022-10-11T07:21:49.631Z,7.50
2022-10-11T07:22:22.963Z,7.80
2022-10-11T07:22:55.978Z,8.30
2022-10-11T07:23:29.077Z,8.70
2022-10-11T07:24:02.712Z,8.70
2022-10-11T07:24:35.916Z,8.60
2022-10-11T07:25:09.308Z,8.80
2022-10-11T07:25:42.511Z,8.50
2022-10-11T07:26:16.325Z,7.90
2022-10-11T07:26:50.310Z,8.90
2022-10-11T07:27:23.983Z,8.10
2022-10-11T07:27:57.105Z,8.10
2022-10-11T07:28:31.131Z,8.40
2022-10-11T07:29:04.916Z,7.10
2022-10-11T07:29:38.168Z,8.30
2022-10-11T07:30:11.672Z,7.70
2022-10-11T07:30:45.056Z,7.80
2022-10-11T07:31:21.241Z,7.80
2022-10-11T07:31:54.406Z,8.30
2022-10-11T07:32:27.605Z,8.30
2022-10-11T07:33:00.631Z,8.60
2022-10-11T07:33:33.982Z,8.30
2022-10-11T07:34:07.282Z,8.50
2022-10-11T07:34:40.326Z,8.50
2022-10-11T07:35:13.602Z,8.90
2022-10-11T07:35:48.528Z,8.60
2022-10-11T07:36:23.511Z,9.40
2022-10-11T07:36:56.462Z,9.10
2022-10-11T07:37:29.548Z,8.30
2022-10-11T07:38:04.115Z,9.10
2022-10-11T07:38:42.962Z,8.90
2022-10-11T07:39:16.173Z,8.40
2022-10-11T07:39:49.933Z,9.40
2022-10-11T07:40:23.092Z,10.70
2022-10-11T07:40:56.352Z,10.50
2022-10-11T07:41:29.645Z,9.70
2022-10-11T07:42:02.853Z,10.00
2022-10-11T07:42:35.841Z,11.30
2022-10-11T07:43:10.273Z,11.30
2022-10-11T07:43:43.875Z,11.00
2022-10-11T07:44:17.205Z,11.00
2022-10-11T07:44:50.309Z,10.80
2022-10-11T07:45:23.479Z,10.80
2022-10-11T07:45:57.583Z,11.00
2022-10-11T07:46:31.638Z,11.90
2022-10-11T07:47:08.940Z,11.20
2022-10-11T07:47:46.732Z,11.00
2022-10-11T07:48:20.171Z,11.40
2022-10-11T07:48:53.336Z,12.70
2022-10-11T07:49:26.418Z,12.20
2022-10-11T07:49:59.596Z,11.20
2022-10-11T07:50:33.744Z,10.10
2022-10-11T07:51:27.727Z,9.90
2022-10-11T07:52:00.910Z,9.40
2022-10-11T07:52:35.965Z,11.00
2022-10-11T07:53:09.094Z,9.80
2022-10-11T07:53:47.190Z,9.90
2022-10-11T07:54:20.441Z,9.40
2022-10-11T07:54:53.645Z,8.80
2022-10-11T07:55:31.460Z,8.70
2022-10-11T07:56:04.951Z,8.90
2022-10-11T07:56:38.725Z,9.50